sensor_id;sensor_type;location;lat;lon;timestamp;P1;durP1;ratioP1;P2;durP2;ratioP2
10904;SDS011;5505;51.450;9.254;2023-05-27T00:01:25;10.07;;;3.93;;
10904;SDS011;5505;51.450;9.254;2023-05-27T00:04:12;8.90;;;3.73;;
10904;SDS011;5505;51.450;9.254;2023-05-27T00:07:01;10.23;;;4.13;;
10904;SDS011;5505;51.450;9.254;2023-05-27T00:09:48;12.17;;;3.77;;
10904;SDS011;5505;51.450;9.254;2023-05-27T00:12:35;11.47;;;3.93;;
10904;SDS011;5505;51.450;9.254;2023-05-27T00:15:22;7.70;;;3.63;;
10904;SDS011;5505;51.450;9.254;2023-05-27T00:18:09;7.97;;;3.67;;
10904;SDS011;5505;51.450;9.254;2023-05-27T00:20:57;8.10;;;3.40;;
10904;SDS011;5505;51.450;9.254;2023-05-27T00:23:45;7.17;;;3.33;;
10904;SDS011;5505;51.450;9.254;2023-05-27T00:26:33;10.13;;;3.50;;
10904;SDS011;5505;51.450;9.254;2023-05-27T00:29:20;7.47;;;3.43;;
10904;SDS011;5505;51.450;9.254;2023-05-27T00:32:07;7.33;;;3.57;;
10904;SDS011;5505;51.450;9.254;2023-05-27T00:34:54;9.40;;;3.87;;
10904;SDS011;5505;51.450;9.254;2023-05-27T00:37:41;10.10;;;4.57;;
10904;SDS011;5505;51.450;9.254;2023-05-27T00:40:30;7.80;;;3.20;;
10904;SDS011;5505;51.450;9.254;2023-05-27T00:43:17;11.53;;;4.00;;
10904;SDS011;5505;51.450;9.254;2023-05-27T00:46:04;9.10;;;3.80;;
10904;SDS011;5505;51.450;9.254;2023-05-27T00:48:51;7.13;;;3.40;;
10904;SDS011;5505;51.450;9.254;2023-05-27T00:51:39;12.23;;;4.60;;
10904;SDS011;5505;51.450;9.254;2023-05-27T00:54:26;6.93;;;3.60;;
10904;SDS011;5505;51.450;9.254;2023-05-27T00:57:15;10.57;;;3.67;;
10904;SDS011;5505;51.450;9.254;2023-05-27T01:00:02;11.37;;;4.13;;
10904;SDS011;5505;51.450;9.254;2023-05-27T01:02:53;11.87;;;3.87;;
10904;SDS011;5505;51.450;9.254;2023-05-27T01:05:40;10.47;;;3.83;;
10904;SDS011;5505;51.450;9.254;2023-05-27T01:08:28;9.10;;;3.90;;
10904;SDS011;5505;51.450;9.254;2023-05-27T01:11:21;8.93;;;3.87;;
10904;SDS011;5505;51.450;9.254;2023-05-27T01:14:15;10.17;;;3.97;;
10904;SDS011;5505;51.450;9.254;2023-05-27T01:17:05;9.00;;;3.60;;
10904;SDS011;5505;51.450;9.254;2023-05-27T01:19:53;9.50;;;3.77;;
10904;SDS011;5505;51.450;9.254;2023-05-27T01:22:43;8.83;;;3.90;;
10904;SDS011;5505;51.450;9.254;2023-05-27T01:25:30;8.50;;;3.60;;
10904;SDS011;5505;51.450;9.254;2023-05-27T01:28:17;9.63;;;4.10;;
10904;SDS011;5505;51.450;9.254;2023-05-27T01:31:06;6.93;;;3.67;;
10904;SDS011;5505;51.450;9.254;2023-05-27T01:33:59;12.67;;;4.10;;
10904;SDS011;5505;51.450;9.254;2023-05-27T01:36:49;9.70;;;4.27;;
10904;SDS011;5505;51.450;9.254;2023-05-27T01:39:42;11.90;;;4.17;;
10904;SDS011;5505;51.450;9.254;2023-05-27T01:42:29;9.23;;;4.00;;
10904;SDS011;5505;51.450;9.254;2023-05-27T01:45:17;7.30;;;3.57;;
10904;SDS011;5505;51.450;9.254;2023-05-27T01:48:04;10.63;;;4.23;;
10904;SDS011;5505;51.450;9.254;2023-05-27T01:50:52;9.73;;;3.87;;
10904;SDS011;5505;51.450;9.254;2023-05-27T01:53:39;9.80;;;3.97;;
10904;SDS011;5505;51.450;9.254;2023-05-27T01:56:28;10.40;;;4.20;;
10904;SDS011;5505;51.450;9.254;2023-05-27T01:59:16;8.67;;;3.70;;
10904;SDS011;5505;51.450;9.254;2023-05-27T02:02:04;9.23;;;4.10;;
10904;SDS011;5505;51.450;9.254;2023-05-27T02:04:51;12.87;;;5.17;;
10904;SDS011;5505;51.450;9.254;2023-05-27T02:07:38;8.07;;;4.33;;
10904;SDS011;5505;51.450;9.254;2023-05-27T02:10:25;10.23;;;4.67;;
10904;SDS011;5505;51.450;9.254;2023-05-27T02:13:14;10.27;;;4.20;;
10904;SDS011;5505;51.450;9.254;2023-05-27T02:16:01;8.30;;;4.40;;
10904;SDS011;5505;51.450;9.254;2023-05-27T02:18:48;10.43;;;4.23;;
10904;SDS011;5505;51.450;9.254;2023-05-27T02:21:35;9.80;;;4.50;;
10904;SDS011;5505;51.450;9.254;2023-05-27T02:24:22;7.77;;;4.23;;
10904;SDS011;5505;51.450;9.254;2023-05-27T02:27:10;12.37;;;4.60;;
10904;SDS011;5505;51.450;9.254;2023-05-27T02:29:58;9.43;;;4.27;;
10904;SDS011;5505;51.450;9.254;2023-05-27T02:32:46;7.17;;;3.67;;
10904;SDS011;5505;51.450;9.254;2023-05-27T02:35:33;7.07;;;3.63;;
10904;SDS011;5505;51.450;9.254;2023-05-27T02:38:20;7.87;;;3.90;;
10904;SDS011;5505;51.450;9.254;2023-05-27T02:41:07;10.60;;;4.00;;
10904;SDS011;5505;51.450;9.254;2023-05-27T02:43:54;7.10;;;3.80;;
10904;SDS011;5505;51.450;9.254;2023-05-27T02:46:42;9.80;;;3.83;;
10904;SDS011;5505;51.450;9.254;2023-05-27T02:49:30;9.63;;;3.57;;
10904;SDS011;5505;51.450;9.254;2023-05-27T02:52:17;8.43;;;3.00;;
10904;SDS011;5505;51.450;9.254;2023-05-27T02:55:04;8.40;;;3.77;;
10904;SDS011;5505;51.450;9.254;2023-05-27T02:57:52;8.10;;;3.90;;
10904;SDS011;5505;51.450;9.254;2023-05-27T03:00:40;7.33;;;3.47;;
10904;SDS011;5505;51.450;9.254;2023-05-27T03:03:28;8.00;;;4.40;;
10904;SDS011;5505;51.450;9.254;2023-05-27T03:06:16;7.87;;;3.77;;
10904;SDS011;5505;51.450;9.254;2023-05-27T03:09:03;8.27;;;3.57;;
10904;SDS011;5505;51.450;9.254;2023-05-27T03:11:50;9.03;;;3.83;;
10904;SDS011;5505;51.450;9.254;2023-05-27T03:14:37;9.70;;;4.10;;
10904;SDS011;5505;51.450;9.254;2023-05-27T03:17:26;6.33;;;3.47;;
10904;SDS011;5505;51.450;9.254;2023-05-27T03:20:15;10.23;;;3.70;;
10904;SDS011;5505;51.450;9.254;2023-05-27T03:23:04;8.20;;;3.90;;
10904;SDS011;5505;51.450;9.254;2023-05-27T03:25:51;10.07;;;4.30;;
10904;SDS011;5505;51.450;9.254;2023-05-27T03:28:38;11.57;;;4.70;;
10904;SDS011;5505;51.450;9.254;2023-05-27T03:31:25;8.87;;;4.07;;
10904;SDS011;5505;51.450;9.254;2023-05-27T03:34:12;8.63;;;4.33;;
10904;SDS011;5505;51.450;9.254;2023-05-27T03:37:01;7.83;;;4.27;;
10904;SDS011;5505;51.450;9.254;2023-05-27T03:39:48;11.07;;;4.10;;
10904;SDS011;5505;51.450;9.254;2023-05-27T03:42:35;15.43;;;6.40;;
10904;SDS011;5505;51.450;9.254;2023-05-27T03:45:22;14.20;;;6.87;;
10904;SDS011;5505;51.450;9.254;2023-05-27T03:48:10;10.03;;;4.77;;
10904;SDS011;5505;51.450;9.254;2023-05-27T03:50:57;10.23;;;4.07;;
10904;SDS011;5505;51.450;9.254;2023-05-27T03:53:45;6.63;;;4.03;;
10904;SDS011;5505;51.450;9.254;2023-05-27T03:56:33;7.47;;;4.10;;
10904;SDS011;5505;51.450;9.254;2023-05-27T03:59:20;10.53;;;4.63;;
10904;SDS011;5505;51.450;9.254;2023-05-27T04:02:07;10.57;;;4.47;;
10904;SDS011;5505;51.450;9.254;2023-05-27T04:04:54;12.00;;;4.10;;
10904;SDS011;5505;51.450;9.254;2023-05-27T04:07:41;10.97;;;4.10;;
10904;SDS011;5505;51.450;9.254;2023-05-27T04:10:30;6.43;;;3.87;;
10904;SDS011;5505;51.450;9.254;2023-05-27T04:13:17;11.47;;;4.37;;
10904;SDS011;5505;51.450;9.254;2023-05-27T04:16:04;7.33;;;4.30;;
10904;SDS011;5505;51.450;9.254;2023-05-27T04:18:52;10.37;;;4.30;;
10904;SDS011;5505;51.450;9.254;2023-05-27T04:21:39;9.23;;;4.20;;
10904;SDS011;5505;51.450;9.254;2023-05-27T04:24:26;8.87;;;4.40;;
10904;SDS011;5505;51.450;9.254;2023-05-27T04:27:15;9.03;;;4.37;;
10904;SDS011;5505;51.450;9.254;2023-05-27T04:30:05;8.60;;;4.40;;
10904;SDS011;5505;51.450;9.254;2023-05-27T04:32:53;8.23;;;4.37;;
10904;SDS011;5505;51.450;9.254;2023-05-27T04:35:40;8.53;;;5.07;;
10904;SDS011;5505;51.450;9.254;2023-05-27T04:38:29;12.13;;;4.53;;
10904;SDS011;5505;51.450;9.254;2023-05-27T04:41:16;10.10;;;4.80;;
10904;SDS011;5505;51.450;9.254;2023-05-27T04:44:06;13.57;;;4.97;;
10904;SDS011;5505;51.450;9.254;2023-05-27T04:46:54;12.53;;;4.83;;
10904;SDS011;5505;51.450;9.254;2023-05-27T04:49:41;10.93;;;4.90;;
10904;SDS011;5505;51.450;9.254;2023-05-27T04:52:29;10.07;;;4.60;;
10904;SDS011;5505;51.450;9.254;2023-05-27T04:55:22;9.17;;;4.90;;
10904;SDS011;5505;51.450;9.254;2023-05-27T04:58:09;10.50;;;4.87;;
10904;SDS011;5505;51.450;9.254;2023-05-27T05:00:57;10.83;;;4.83;;
10904;SDS011;5505;51.450;9.254;2023-05-27T05:03:45;9.17;;;5.03;;
10904;SDS011;5505;51.450;9.254;2023-05-27T05:06:38;12.27;;;5.40;;
10904;SDS011;5505;51.450;9.254;2023-05-27T05:09:25;10.97;;;5.70;;
10904;SDS011;5505;51.450;9.254;2023-05-27T05:12:12;15.30;;;6.10;;
10904;SDS011;5505;51.450;9.254;2023-05-27T05:14:59;16.97;;;6.37;;
10904;SDS011;5505;51.450;9.254;2023-05-27T05:17:48;17.10;;;6.00;;
10904;SDS011;5505;51.450;9.254;2023-05-27T05:20:35;12.87;;;5.80;;
10904;SDS011;5505;51.450;9.254;2023-05-27T05:23:22;14.13;;;6.23;;
10904;SDS011;5505;51.450;9.254;2023-05-27T05:26:09;15.00;;;6.20;;
10904;SDS011;5505;51.450;9.254;2023-05-27T05:28:56;13.47;;;5.93;;
10904;SDS011;5505;51.450;9.254;2023-05-27T05:31:43;11.80;;;6.47;;
10904;SDS011;5505;51.450;9.254;2023-05-27T05:34:31;14.10;;;6.33;;
10904;SDS011;5505;51.450;9.254;2023-05-27T05:37:19;15.43;;;6.90;;
10904;SDS011;5505;51.450;9.254;2023-05-27T05:40:06;14.20;;;6.00;;
10904;SDS011;5505;51.450;9.254;2023-05-27T05:42:54;15.07;;;6.27;;
10904;SDS011;5505;51.450;9.254;2023-05-27T05:45:41;19.10;;;6.87;;
10904;SDS011;5505;51.450;9.254;2023-05-27T05:48:28;14.67;;;6.20;;
10904;SDS011;5505;51.450;9.254;2023-05-27T05:51:16;15.37;;;6.53;;
10904;SDS011;5505;51.450;9.254;2023-05-27T05:54:03;15.43;;;6.60;;
10904;SDS011;5505;51.450;9.254;2023-05-27T05:56:51;11.73;;;6.50;;
10904;SDS011;5505;51.450;9.254;2023-05-27T05:59:38;15.50;;;6.23;;
10904;SDS011;5505;51.450;9.254;2023-05-27T06:02:25;18.37;;;7.33;;
10904;SDS011;5505;51.450;9.254;2023-05-27T06:05:12;18.03;;;7.37;;
10904;SDS011;5505;51.450;9.254;2023-05-27T06:08:01;17.27;;;6.90;;
10904;SDS011;5505;51.450;9.254;2023-05-27T06:10:48;13.80;;;6.53;;
10904;SDS011;5505;51.450;9.254;2023-05-27T06:13:35;34.60;;;7.40;;
10904;SDS011;5505;51.450;9.254;2023-05-27T06:16:22;11.23;;;6.47;;
10904;SDS011;5505;51.450;9.254;2023-05-27T06:19:09;16.67;;;7.07;;
10904;SDS011;5505;51.450;9.254;2023-05-27T06:21:56;12.77;;;6.10;;
10904;SDS011;5505;51.450;9.254;2023-05-27T06:24:45;16.07;;;6.63;;
10904;SDS011;5505;51.450;9.254;2023-05-27T06:27:32;16.50;;;5.97;;
10904;SDS011;5505;51.450;9.254;2023-05-27T06:30:19;15.77;;;6.20;;
10904;SDS011;5505;51.450;9.254;2023-05-27T06:33:06;15.17;;;5.60;;
10904;SDS011;5505;51.450;9.254;2023-05-27T06:35:53;13.80;;;5.40;;
10904;SDS011;5505;51.450;9.254;2023-05-27T06:38:40;12.37;;;5.73;;
10904;SDS011;5505;51.450;9.254;2023-05-27T06:41:29;19.43;;;5.77;;
10904;SDS011;5505;51.450;9.254;2023-05-27T06:44:16;10.87;;;4.97;;
10904;SDS011;5505;51.450;9.254;2023-05-27T06:47:03;13.40;;;5.83;;
10904;SDS011;5505;51.450;9.254;2023-05-27T06:49:50;12.73;;;5.00;;
10904;SDS011;5505;51.450;9.254;2023-05-27T06:52:37;18.37;;;5.00;;
10904;SDS011;5505;51.450;9.254;2023-05-27T06:55:25;13.53;;;5.00;;
10904;SDS011;5505;51.450;9.254;2023-05-27T06:58:13;17.23;;;5.07;;
10904;SDS011;5505;51.450;9.254;2023-05-27T07:01:00;11.07;;;4.80;;
10904;SDS011;5505;51.450;9.254;2023-05-27T07:03:47;10.97;;;4.70;;
10904;SDS011;5505;51.450;9.254;2023-05-27T07:06:34;11.07;;;4.30;;
10904;SDS011;5505;51.450;9.254;2023-05-27T07:09:22;10.67;;;4.73;;
10904;SDS011;5505;51.450;9.254;2023-05-27T07:12:10;10.73;;;4.63;;
10904;SDS011;5505;51.450;9.254;2023-05-27T07:14:58;14.60;;;4.97;;
10904;SDS011;5505;51.450;9.254;2023-05-27T07:17:45;9.77;;;4.53;;
10904;SDS011;5505;51.450;9.254;2023-05-27T07:20:32;11.07;;;4.27;;
10904;SDS011;5505;51.450;9.254;2023-05-27T07:23:20;11.13;;;4.30;;
10904;SDS011;5505;51.450;9.254;2023-05-27T07:26:07;15.90;;;4.70;;
10904;SDS011;5505;51.450;9.254;2023-05-27T07:28:54;11.40;;;4.40;;
10904;SDS011;5505;51.450;9.254;2023-05-27T07:31:45;12.13;;;4.47;;
10904;SDS011;5505;51.450;9.254;2023-05-27T07:34:32;10.27;;;4.00;;
10904;SDS011;5505;51.450;9.254;2023-05-27T07:37:19;11.00;;;4.53;;
10904;SDS011;5505;51.450;9.254;2023-05-27T07:40:07;11.63;;;4.30;;
10904;SDS011;5505;51.450;9.254;2023-05-27T07:42:55;22.77;;;4.30;;
10904;SDS011;5505;51.450;9.254;2023-05-27T07:45:42;11.13;;;4.17;;
10904;SDS011;5505;51.450;9.254;2023-05-27T07:48:30;11.80;;;3.90;;
10904;SDS011;5505;51.450;9.254;2023-05-27T07:51:17;13.60;;;4.23;;
10904;SDS011;5505;51.450;9.254;2023-05-27T07:54:05;12.83;;;4.60;;
10904;SDS011;5505;51.450;9.254;2023-05-27T07:56:52;11.83;;;4.20;;
10904;SDS011;5505;51.450;9.254;2023-05-27T07:59:39;12.50;;;4.53;;
10904;SDS011;5505;51.450;9.254;2023-05-27T08:02:26;15.30;;;4.00;;
10904;SDS011;5505;51.450;9.254;2023-05-27T08:05:14;9.03;;;4.10;;
10904;SDS011;5505;51.450;9.254;2023-05-27T08:08:01;11.67;;;4.00;;
10904;SDS011;5505;51.450;9.254;2023-05-27T08:10:48;11.33;;;3.40;;
10904;SDS011;5505;51.450;9.254;2023-05-27T08:13:36;11.17;;;3.87;;
10904;SDS011;5505;51.450;9.254;2023-05-27T08:16:24;11.10;;;4.23;;
10904;SDS011;5505;51.450;9.254;2023-05-27T08:19:11;12.23;;;3.97;;
10904;SDS011;5505;51.450;9.254;2023-05-27T08:21:59;9.27;;;3.73;;
10904;SDS011;5505;51.450;9.254;2023-05-27T08:24:47;7.17;;;3.67;;
10904;SDS011;5505;51.450;9.254;2023-05-27T08:27:44;11.60;;;3.97;;
10904;SDS011;5505;51.450;9.254;2023-05-27T08:30:32;10.93;;;4.17;;
10904;SDS011;5505;51.450;9.254;2023-05-27T08:33:19;13.87;;;4.37;;
10904;SDS011;5505;51.450;9.254;2023-05-27T08:36:07;12.13;;;4.00;;
10904;SDS011;5505;51.450;9.254;2023-05-27T08:38:55;10.43;;;3.87;;
10904;SDS011;5505;51.450;9.254;2023-05-27T08:41:43;12.07;;;3.77;;
10904;SDS011;5505;51.450;9.254;2023-05-27T08:44:30;9.00;;;3.43;;
10904;SDS011;5505;51.450;9.254;2023-05-27T08:47:17;12.37;;;4.03;;
10904;SDS011;5505;51.450;9.254;2023-05-27T08:50:05;11.57;;;3.50;;
10904;SDS011;5505;51.450;9.254;2023-05-27T08:52:53;7.03;;;3.77;;
10904;SDS011;5505;51.450;9.254;2023-05-27T08:55:43;11.90;;;3.40;;
10904;SDS011;5505;51.450;9.254;2023-05-27T08:58:31;9.20;;;3.10;;
10904;SDS011;5505;51.450;9.254;2023-05-27T09:01:18;10.97;;;3.20;;
10904;SDS011;5505;51.450;9.254;2023-05-27T09:04:06;9.13;;;3.73;;
10904;SDS011;5505;51.450;9.254;2023-05-27T09:06:53;8.40;;;3.47;;
10904;SDS011;5505;51.450;9.254;2023-05-27T09:09:41;10.47;;;3.83;;
10904;SDS011;5505;51.450;9.254;2023-05-27T09:12:30;10.63;;;3.50;;
10904;SDS011;5505;51.450;9.254;2023-05-27T09:15:17;10.93;;;3.83;;
10904;SDS011;5505;51.450;9.254;2023-05-27T09:18:04;10.53;;;3.67;;
10904;SDS011;5505;51.450;9.254;2023-05-27T09:20:53;11.30;;;4.13;;
10904;SDS011;5505;51.450;9.254;2023-05-27T09:23:41;18.70;;;3.90;;
10904;SDS011;5505;51.450;9.254;2023-05-27T09:26:28;9.27;;;3.60;;
10904;SDS011;5505;51.450;9.254;2023-05-27T09:29:17;7.97;;;3.70;;
10904;SDS011;5505;51.450;9.254;2023-05-27T09:32:05;7.07;;;3.57;;
10904;SDS011;5505;51.450;9.254;2023-05-27T09:34:53;8.07;;;3.40;;
10904;SDS011;5505;51.450;9.254;2023-05-27T09:37:41;8.23;;;3.33;;
10904;SDS011;5505;51.450;9.254;2023-05-27T09:40:30;9.43;;;3.40;;
10904;SDS011;5505;51.450;9.254;2023-05-27T09:43:17;11.13;;;3.73;;
10904;SDS011;5505;51.450;9.254;2023-05-27T09:46:09;7.17;;;3.50;;
10904;SDS011;5505;51.450;9.254;2023-05-27T09:48:58;9.00;;;3.30;;
10904;SDS011;5505;51.450;9.254;2023-05-27T09:51:45;11.63;;;3.40;;
10904;SDS011;5505;51.450;9.254;2023-05-27T09:54:33;7.60;;;3.20;;
10904;SDS011;5505;51.450;9.254;2023-05-27T09:57:21;7.07;;;3.47;;
10904;SDS011;5505;51.450;9.254;2023-05-27T10:00:09;8.90;;;3.47;;
10904;SDS011;5505;51.450;9.254;2023-05-27T10:03:01;8.57;;;3.20;;
10904;SDS011;5505;51.450;9.254;2023-05-27T10:05:49;9.17;;;2.97;;
10904;SDS011;5505;51.450;9.254;2023-05-27T10:08:36;6.37;;;3.00;;
10904;SDS011;5505;51.450;9.254;2023-05-27T10:11:23;9.77;;;3.20;;
10904;SDS011;5505;51.450;9.254;2023-05-27T10:14:11;7.40;;;3.17;;
10904;SDS011;5505;51.450;9.254;2023-05-27T10:16:58;8.33;;;3.30;;
10904;SDS011;5505;51.450;9.254;2023-05-27T10:19:54;5.10;;;3.20;;
10904;SDS011;5505;51.450;9.254;2023-05-27T10:22:42;5.63;;;2.80;;
10904;SDS011;5505;51.450;9.254;2023-05-27T10:25:35;8.70;;;2.80;;
10904;SDS011;5505;51.450;9.254;2023-05-27T10:28:22;7.80;;;3.10;;
10904;SDS011;5505;51.450;9.254;2023-05-27T10:31:11;6.13;;;3.10;;
10904;SDS011;5505;51.450;9.254;2023-05-27T10:34:03;9.07;;;3.40;;
10904;SDS011;5505;51.450;9.254;2023-05-27T10:36:59;6.67;;;3.37;;
10904;SDS011;5505;51.450;9.254;2023-05-27T10:39:53;7.97;;;3.27;;
10904;SDS011;5505;51.450;9.254;2023-05-27T10:42:40;9.17;;;3.30;;
10904;SDS011;5505;51.450;9.254;2023-05-27T10:45:31;5.90;;;3.20;;
10904;SDS011;5505;51.450;9.254;2023-05-27T10:48:20;9.63;;;3.43;;
10904;SDS011;5505;51.450;9.254;2023-05-27T10:51:13;6.87;;;3.00;;
10904;SDS011;5505;51.450;9.254;2023-05-27T10:54:03;10.57;;;3.47;;
10904;SDS011;5505;51.450;9.254;2023-05-27T10:56:52;9.87;;;3.60;;
10904;SDS011;5505;51.450;9.254;2023-05-27T10:59:40;6.13;;;3.03;;
10904;SDS011;5505;51.450;9.254;2023-05-27T11:02:32;5.87;;;3.03;;
10904;SDS011;5505;51.450;9.254;2023-05-27T11:05:27;6.83;;;2.97;;
10904;SDS011;5505;51.450;9.254;2023-05-27T11:08:17;8.33;;;3.17;;
10904;SDS011;5505;51.450;9.254;2023-05-27T11:11:06;6.70;;;3.10;;
10904;SDS011;5505;51.450;9.254;2023-05-27T11:13:54;8.37;;;3.07;;
10904;SDS011;5505;51.450;9.254;2023-05-27T11:16:45;8.13;;;3.27;;
10904;SDS011;5505;51.450;9.254;2023-05-27T11:19:33;7.70;;;3.40;;
10904;SDS011;5505;51.450;9.254;2023-05-27T11:22:20;6.80;;;3.27;;
10904;SDS011;5505;51.450;9.254;2023-05-27T11:25:07;7.93;;;3.43;;
10904;SDS011;5505;51.450;9.254;2023-05-27T11:27:57;6.43;;;2.80;;
10904;SDS011;5505;51.450;9.254;2023-05-27T11:30:44;6.67;;;3.03;;
10904;SDS011;5505;51.450;9.254;2023-05-27T11:33:31;6.43;;;3.17;;
10904;SDS011;5505;51.450;9.254;2023-05-27T11:36:19;9.57;;;3.43;;
10904;SDS011;5505;51.450;9.254;2023-05-27T11:39:09;8.53;;;3.17;;
10904;SDS011;5505;51.450;9.254;2023-05-27T11:41:58;7.27;;;3.13;;
10904;SDS011;5505;51.450;9.254;2023-05-27T11:44:50;10.00;;;3.10;;
10904;SDS011;5505;51.450;9.254;2023-05-27T11:47:40;7.83;;;3.20;;
10904;SDS011;5505;51.450;9.254;2023-05-27T11:50:27;11.33;;;3.53;;
10904;SDS011;5505;51.450;9.254;2023-05-27T11:53:14;7.43;;;2.90;;
10904;SDS011;5505;51.450;9.254;2023-05-27T11:56:03;7.17;;;2.80;;
10904;SDS011;5505;51.450;9.254;2023-05-27T11:58:51;6.43;;;3.20;;
10904;SDS011;5505;51.450;9.254;2023-05-27T12:01:39;7.07;;;3.03;;
10904;SDS011;5505;51.450;9.254;2023-05-27T12:04:26;8.87;;;3.50;;
10904;SDS011;5505;51.450;9.254;2023-05-27T12:07:13;8.23;;;3.53;;
10904;SDS011;5505;51.450;9.254;2023-05-27T12:10:01;9.33;;;3.20;;
10904;SDS011;5505;51.450;9.254;2023-05-27T12:12:48;9.43;;;3.40;;
10904;SDS011;5505;51.450;9.254;2023-05-27T12:15:35;7.80;;;3.20;;
10904;SDS011;5505;51.450;9.254;2023-05-27T12:18:23;7.43;;;3.50;;
10904;SDS011;5505;51.450;9.254;2023-05-27T12:21:11;6.23;;;2.93;;
10904;SDS011;5505;51.450;9.254;2023-05-27T12:23:58;8.23;;;3.17;;
10904;SDS011;5505;51.450;9.254;2023-05-27T12:26:45;10.80;;;3.77;;
10904;SDS011;5505;51.450;9.254;2023-05-27T12:29:32;6.10;;;2.97;;
10904;SDS011;5505;51.450;9.254;2023-05-27T12:32:20;6.73;;;3.23;;
10904;SDS011;5505;51.450;9.254;2023-05-27T12:35:08;6.63;;;3.00;;
10904;SDS011;5505;51.450;9.254;2023-05-27T12:37:56;6.87;;;3.00;;
10904;SDS011;5505;51.450;9.254;2023-05-27T12:40:44;7.33;;;3.13;;
10904;SDS011;5505;51.450;9.254;2023-05-27T12:43:31;5.70;;;3.00;;
10904;SDS011;5505;51.450;9.254;2023-05-27T12:46:19;6.13;;;3.00;;
10904;SDS011;5505;51.450;9.254;2023-05-27T12:49:06;8.63;;;2.83;;
10904;SDS011;5505;51.450;9.254;2023-05-27T12:51:54;7.03;;;2.90;;
10904;SDS011;5505;51.450;9.254;2023-05-27T12:54:42;6.87;;;3.00;;
10904;SDS011;5505;51.450;9.254;2023-05-27T12:57:29;8.03;;;2.97;;
10904;SDS011;5505;51.450;9.254;2023-05-27T13:00:16;5.73;;;2.43;;
10904;SDS011;5505;51.450;9.254;2023-05-27T13:03:04;6.20;;;2.93;;
10904;SDS011;5505;51.450;9.254;2023-05-27T13:05:51;6.30;;;2.63;;
10904;SDS011;5505;51.450;9.254;2023-05-27T13:08:39;5.30;;;2.83;;
10904;SDS011;5505;51.450;9.254;2023-05-27T13:11:26;9.13;;;3.23;;
10904;SDS011;5505;51.450;9.254;2023-05-27T13:14:14;7.83;;;2.77;;
10904;SDS011;5505;51.450;9.254;2023-05-27T13:17:01;5.30;;;2.63;;
10904;SDS011;5505;51.450;9.254;2023-05-27T13:19:48;6.00;;;2.57;;
10904;SDS011;5505;51.450;9.254;2023-05-27T13:22:35;10.57;;;2.93;;
10904;SDS011;5505;51.450;9.254;2023-05-27T13:25:24;7.37;;;2.77;;
10904;SDS011;5505;51.450;9.254;2023-05-27T13:28:11;4.90;;;2.60;;
10904;SDS011;5505;51.450;9.254;2023-05-27T13:30:58;10.20;;;2.83;;
10904;SDS011;5505;51.450;9.254;2023-05-27T13:33:46;5.17;;;2.80;;
10904;SDS011;5505;51.450;9.254;2023-05-27T13:36:33;6.90;;;3.10;;
10904;SDS011;5505;51.450;9.254;2023-05-27T13:39:20;6.70;;;2.70;;
10904;SDS011;5505;51.450;9.254;2023-05-27T13:42:08;5.70;;;2.73;;
10904;SDS011;5505;51.450;9.254;2023-05-27T13:44:55;6.40;;;2.50;;
10904;SDS011;5505;51.450;9.254;2023-05-27T13:47:42;4.57;;;2.30;;
10904;SDS011;5505;51.450;9.254;2023-05-27T13:50:30;4.27;;;2.60;;
10904;SDS011;5505;51.450;9.254;2023-05-27T13:53:18;7.10;;;2.73;;
10904;SDS011;5505;51.450;9.254;2023-05-27T13:56:05;6.57;;;2.83;;
10904;SDS011;5505;51.450;9.254;2023-05-27T13:58:53;6.70;;;2.80;;
10904;SDS011;5505;51.450;9.254;2023-05-27T14:01:40;6.37;;;2.97;;
10904;SDS011;5505;51.450;9.254;2023-05-27T14:04:28;4.23;;;2.30;;
10904;SDS011;5505;51.450;9.254;2023-05-27T14:07:15;6.63;;;2.97;;
10904;SDS011;5505;51.450;9.254;2023-05-27T14:10:02;5.17;;;2.93;;
10904;SDS011;5505;51.450;9.254;2023-05-27T14:12:50;5.67;;;2.70;;
10904;SDS011;5505;51.450;9.254;2023-05-27T14:15:38;5.83;;;2.50;;
10904;SDS011;5505;51.450;9.254;2023-05-27T14:18:25;4.77;;;2.50;;
10904;SDS011;5505;51.450;9.254;2023-05-27T14:21:13;7.63;;;3.17;;
10904;SDS011;5505;51.450;9.254;2023-05-27T14:24:00;8.87;;;2.87;;
10904;SDS011;5505;51.450;9.254;2023-05-27T14:26:47;8.07;;;2.90;;
10904;SDS011;5505;51.450;9.254;2023-05-27T14:29:35;5.90;;;2.37;;
10904;SDS011;5505;51.450;9.254;2023-05-27T14:32:24;5.63;;;2.80;;
10904;SDS011;5505;51.450;9.254;2023-05-27T14:35:11;13.03;;;2.73;;
10904;SDS011;5505;51.450;9.254;2023-05-27T14:37:58;8.73;;;2.90;;
10904;SDS011;5505;51.450;9.254;2023-05-27T14:40:45;6.27;;;2.20;;
10904;SDS011;5505;51.450;9.254;2023-05-27T14:43:32;3.60;;;2.07;;
10904;SDS011;5505;51.450;9.254;2023-05-27T14:46:19;5.00;;;2.37;;
10904;SDS011;5505;51.450;9.254;2023-05-27T14:49:08;5.30;;;2.13;;
10904;SDS011;5505;51.450;9.254;2023-05-27T14:51:55;6.33;;;2.57;;
10904;SDS011;5505;51.450;9.254;2023-05-27T14:54:42;4.43;;;2.20;;
10904;SDS011;5505;51.450;9.254;2023-05-27T14:57:29;4.97;;;2.20;;
10904;SDS011;5505;51.450;9.254;2023-05-27T15:00:19;6.67;;;2.37;;
10904;SDS011;5505;51.450;9.254;2023-05-27T15:03:07;4.13;;;2.20;;
10904;SDS011;5505;51.450;9.254;2023-05-27T15:05:55;4.77;;;2.43;;
10904;SDS011;5505;51.450;9.254;2023-05-27T15:08:43;5.20;;;2.43;;
10904;SDS011;5505;51.450;9.254;2023-05-27T15:11:30;7.20;;;2.70;;
10904;SDS011;5505;51.450;9.254;2023-05-27T15:14:17;4.23;;;2.40;;
10904;SDS011;5505;51.450;9.254;2023-05-27T15:17:04;4.47;;;2.40;;
10904;SDS011;5505;51.450;9.254;2023-05-27T15:19:56;6.53;;;2.40;;
10904;SDS011;5505;51.450;9.254;2023-05-27T15:22:46;5.50;;;2.40;;
10904;SDS011;5505;51.450;9.254;2023-05-27T15:25:33;4.83;;;2.27;;
10904;SDS011;5505;51.450;9.254;2023-05-27T15:28:21;7.70;;;2.77;;
10904;SDS011;5505;51.450;9.254;2023-05-27T15:31:08;4.47;;;2.33;;
10904;SDS011;5505;51.450;9.254;2023-05-27T15:33:56;4.40;;;2.43;;
10904;SDS011;5505;51.450;9.254;2023-05-27T15:36:43;4.83;;;2.50;;
10904;SDS011;5505;51.450;9.254;2023-05-27T15:39:31;19.17;;;2.77;;
10904;SDS011;5505;51.450;9.254;2023-05-27T15:42:18;3.50;;;2.20;;
10904;SDS011;5505;51.450;9.254;2023-05-27T15:45:06;4.93;;;2.43;;
10904;SDS011;5505;51.450;9.254;2023-05-27T15:47:54;3.03;;;2.10;;
10904;SDS011;5505;51.450;9.254;2023-05-27T15:50:41;4.17;;;2.27;;
10904;SDS011;5505;51.450;9.254;2023-05-27T15:53:28;6.63;;;2.57;;
10904;SDS011;5505;51.450;9.254;2023-05-27T15:56:17;4.00;;;2.40;;
10904;SDS011;5505;51.450;9.254;2023-05-27T15:59:04;5.70;;;2.30;;
10904;SDS011;5505;51.450;9.254;2023-05-27T16:01:51;4.73;;;2.30;;
10904;SDS011;5505;51.450;9.254;2023-05-27T16:04:38;4.00;;;2.10;;
10904;SDS011;5505;51.450;9.254;2023-05-27T16:07:25;6.23;;;2.47;;
10904;SDS011;5505;51.450;9.254;2023-05-27T16:10:12;6.07;;;2.10;;
10904;SDS011;5505;51.450;9.254;2023-05-27T16:13:01;8.37;;;2.67;;
10904;SDS011;5505;51.450;9.254;2023-05-27T16:15:48;4.03;;;2.27;;
10904;SDS011;5505;51.450;9.254;2023-05-27T16:18:36;5.70;;;2.23;;
10904;SDS011;5505;51.450;9.254;2023-05-27T16:21:23;8.10;;;2.30;;
10904;SDS011;5505;51.450;9.254;2023-05-27T16:24:10;5.23;;;2.10;;
10904;SDS011;5505;51.450;9.254;2023-05-27T16:26:57;7.20;;;2.57;;
10904;SDS011;5505;51.450;9.254;2023-05-27T16:29:47;5.17;;;2.20;;
10904;SDS011;5505;51.450;9.254;2023-05-27T16:32:34;4.03;;;2.30;;
10904;SDS011;5505;51.450;9.254;2023-05-27T16:35:21;4.10;;;2.43;;
10904;SDS011;5505;51.450;9.254;2023-05-27T16:38:09;5.50;;;2.30;;
10904;SDS011;5505;51.450;9.254;2023-05-27T16:40:56;4.17;;;2.40;;
10904;SDS011;5505;51.450;9.254;2023-05-27T16:43:43;4.20;;;2.60;;
10904;SDS011;5505;51.450;9.254;2023-05-27T16:46:33;4.07;;;2.07;;
10904;SDS011;5505;51.450;9.254;2023-05-27T16:49:20;6.87;;;2.53;;
10904;SDS011;5505;51.450;9.254;2023-05-27T16:52:07;4.70;;;2.03;;
10904;SDS011;5505;51.450;9.254;2023-05-27T16:54:54;12.67;;;2.70;;
10904;SDS011;5505;51.450;9.254;2023-05-27T16:57:41;5.63;;;2.60;;
10904;SDS011;5505;51.450;9.254;2023-05-27T17:00:28;4.97;;;2.60;;